ESGG

Gothenburg-Landvetter Airport

Gothenburg, Sweden
METAR ESGG 181420Z 20018KT 9999 BKN016 OVC024 17/14 Q1014
Observed Flight Rules
Aug-18 @ 14:20 UTC (33 minutes ago) Marginal Visual Flight Rules
Wind Visibility Clouds
200° at 18 knots 10,000+ meters
  • Broken at 1,600' AGL
  • Overcast at 2,400' AGL
Temperatures Readings
Current 17°C / 63°F
Dewpoint 14°C / 57°F
Humidity 83%
Altimeter 29.94" Hg
Pressure 1014 hPa
Elevation 169
METAR ESGG 181420Z 20018KT 9999 BKN016 OVC024 17/14 Q1014
Observed Flight Rules
Aug-18 @ 14:20 UTC
(33 minutes ago)
MVFR
Wind Visibility
200° at 18 knots 10,000+ meters
Clouds
  • Broken at 1,600' AGL
  • Overcast at 2,400' AGL
Temperature Dewpoint
17°C / 63°F 14°C / 57°F
Humidity Altimeter Pressure
83% 29.94" Hg 1014 hPa